Nearby METAR Reports

 

EGNV - Tees-Side, United Kingdom
Distance from station: W 8mi, 13km
Updated: 24/05/2018 23:20
NOT Current
Mostly cloudy
Mostly cloudy
 Wind from N
Wind: N 7 mph , 11 km/h
Temperature: 9°C
Wind Chill: 7°C
Dew Point: 8°C
Humidity: 94%
Barometer: 1024 hPa
Clouds: Mostly cloudy
Visibility: 4 miles , 6 km
Cloud details: Mostly cloudy 91 m
2018/05/24 22:20 EGNV 242220Z 01006KT 6000 BKN003 09/08 Q1024
EGXE - Leeming Raf, United Kingdom
Distance from station: SW 21mi, 34km
Updated: 25/05/2018 01:50
Mist, Overcast
Mist, Overcast
 Wind from N
Wind: N 12 mph , 19 km/h
Temperature: 10°C
Wind Chill: 7°C
Dew Point: 9°C
Humidity: 94%
Barometer: 1023 hPa
Summary: Mist
Clouds: Overcast
Visibility: 2 miles , 4 km
Cloud details: Overcast 91 m
2018/05/25 00:50 EGXE 250050Z AUTO 35010KT 3900 BR OVC003/// 10/09 Q1023
 
EGXZ - Topcliffe Raf, United Kingdom
Distance from station: SSW 24mi, 38km
Updated: 25/05/2018 01:50
Mist, Overcast
Mist, Overcast
 Wind from NNW
Wind: NNW 17 mph , 28 km/h
Temperature: 10°C
Wind Chill: 7°C
Dew Point: 9°C
Humidity: 94%
Barometer: 1022 hPa
Summary: Mist
Clouds: Overcast
Visibility: 3 miles , 4 km
Cloud details: Overcast 61 m
2018/05/25 00:50 EGXZ 250050Z AUTO 34015KT 4300 BR OVC002/// 10/09 Q1022
EGXD - Dishforth Raf, United Kingdom
Distance from station: SSW 29mi, 46km
Updated: 06/06/2016 10:50
NOT Current
Clear
Clear
 Wind from SSE
Wind: SSE 5 mph , 7 km/h
Temperature: 18°C
Dew Point: 11°C
Humidity: 64%
Barometer: 1023 hPa
Clouds: Clear
Visibility: 6 miles , 10 km
2016/06/06 09:50 EGXD 060950Z AUTO 16004KT 9999 // NCD 18/11 Q1023
 
EGXU - Linton-On-Ouse R, United Kingdom
Distance from station: S 33mi, 53km
Updated: 25/05/2018 01:50
Mostly cloudy
Mostly cloudy
 Wind from NNW
Wind: NNW 14 mph , 22 km/h
Temperature: 10°C
Wind Chill: 7°C
Dew Point: 9°C
Humidity: 94%
Barometer: 1021 hPa
Clouds: Mostly cloudy
Visibility: 4 miles , 6 km
Cloud details: Mostly cloudy 91 m
Mostly cloudy 3353 m
2018/05/25 00:50 EGXU 250050Z AUTO 33012KT 6000 // BKN003/// BKN110/// 10/09 Q1021
EGNT - Newcastle, United Kingdom
Distance from station: NNW 39mi, 63km
Updated: 25/05/2018 01:50
Fog, Overcast
Fog, Overcast
 Wind from N
Wind: N 7 mph , 11 km/h
Temperature: 9°C
Wind Chill: 7°C
Dew Point: 9°C
Humidity: 100%
Barometer: 1023 hPa
Summary: Fog
Clouds: Overcast
Visibility: 0 mile , 0 km
Cloud details: Mostly cloudy 61 m
Overcast 945 m
2018/05/25 00:50 EGNT 250050Z 35006KT 0350 R07/0700 FG BKN002 OVC031 09/09 Q1023
 
EGNM - Leeds And Bradfo, United Kingdom
Distance from station: SSW 49mi, 79km
Updated: 01/01/1970 01:00
NOT Current
unable to load EGNM data RC=404 Not Found
unable to load EGNM data RC=404 Not Found